sensor_id;sensor_type;location;lat;lon;timestamp;P1;durP1;ratioP1;P2;durP2;ratioP2
16743;SDS011;71724;-33.900;151.182;2023-12-14T00:00:07;6.38;;;2.50;;
16743;SDS011;71724;-33.900;151.182;2023-12-14T00:02:34;5.57;;;2.17;;
16743;SDS011;71724;-33.900;151.182;2023-12-14T00:05:02;7.50;;;2.33;;
16743;SDS011;71724;-33.900;151.182;2023-12-14T00:07:29;5.55;;;2.60;;
16743;SDS011;71724;-33.900;151.182;2023-12-14T00:09:57;3.38;;;2.25;;
16743;SDS011;71724;-33.900;151.182;2023-12-14T00:12:24;5.30;;;2.30;;
16743;SDS011;71724;-33.900;151.182;2023-12-14T00:14:51;5.13;;;2.25;;
16743;SDS011;71724;-33.900;151.182;2023-12-14T00:17:19;4.53;;;2.20;;
16743;SDS011;71724;-33.900;151.182;2023-12-14T00:19:46;4.45;;;2.17;;
16743;SDS011;71724;-33.900;151.182;2023-12-14T00:22:14;4.40;;;2.30;;
16743;SDS011;71724;-33.900;151.182;2023-12-14T00:24:41;5.60;;;2.40;;
16743;SDS011;71724;-33.900;151.182;2023-12-14T00:27:09;5.47;;;2.58;;
16743;SDS011;71724;-33.900;151.182;2023-12-14T00:29:36;5.05;;;2.30;;
16743;SDS011;71724;-33.900;151.182;2023-12-14T00:32:03;5.68;;;2.50;;
16743;SDS011;71724;-33.900;151.182;2023-12-14T00:34:31;3.40;;;2.30;;
16743;SDS011;71724;-33.900;151.182;2023-12-14T00:36:58;7.72;;;2.95;;
16743;SDS011;71724;-33.900;151.182;2023-12-14T00:39:26;5.95;;;2.28;;
16743;SDS011;71724;-33.900;151.182;2023-12-14T00:41:54;4.88;;;2.20;;
16743;SDS011;71724;-33.900;151.182;2023-12-14T00:44:21;5.90;;;2.47;;
16743;SDS011;71724;-33.900;151.182;2023-12-14T00:46:49;3.88;;;2.40;;
16743;SDS011;71724;-33.900;151.182;2023-12-14T00:49:16;3.90;;;2.25;;
16743;SDS011;71724;-33.900;151.182;2023-12-14T00:51:45;6.05;;;2.08;;
16743;SDS011;71724;-33.900;151.182;2023-12-14T00:54:12;4.40;;;2.10;;
16743;SDS011;71724;-33.900;151.182;2023-12-14T00:56:39;3.83;;;2.15;;
16743;SDS011;71724;-33.900;151.182;2023-12-14T00:59:08;5.13;;;2.42;;
16743;SDS011;71724;-33.900;151.182;2023-12-14T01:01:36;3.92;;;2.20;;
16743;SDS011;71724;-33.900;151.182;2023-12-14T01:04:04;6.00;;;2.47;;
16743;SDS011;71724;-33.900;151.182;2023-12-14T01:06:31;5.35;;;2.25;;
16743;SDS011;71724;-33.900;151.182;2023-12-14T01:08:58;5.90;;;2.50;;
16743;SDS011;71724;-33.900;151.182;2023-12-14T01:11:26;4.45;;;2.08;;
16743;SDS011;71724;-33.900;151.182;2023-12-14T01:13:57;4.50;;;2.17;;
16743;SDS011;71724;-33.900;151.182;2023-12-14T01:16:25;3.80;;;2.00;;
16743;SDS011;71724;-33.900;151.182;2023-12-14T01:18:53;4.90;;;1.95;;
16743;SDS011;71724;-33.900;151.182;2023-12-14T01:21:20;5.15;;;2.35;;
16743;SDS011;71724;-33.900;151.182;2023-12-14T01:23:48;6.30;;;2.35;;
16743;SDS011;71724;-33.900;151.182;2023-12-14T01:26:15;5.15;;;2.00;;
16743;SDS011;71724;-33.900;151.182;2023-12-14T01:28:43;5.50;;;2.05;;
16743;SDS011;71724;-33.900;151.182;2023-12-14T01:31:11;9.38;;;2.22;;
16743;SDS011;71724;-33.900;151.182;2023-12-14T01:33:38;5.13;;;1.75;;
16743;SDS011;71724;-33.900;151.182;2023-12-14T01:36:06;3.85;;;1.75;;
16743;SDS011;71724;-33.900;151.182;2023-12-14T01:38:33;3.88;;;1.95;;
16743;SDS011;71724;-33.900;151.182;2023-12-14T01:41:00;7.22;;;2.40;;
16743;SDS011;71724;-33.900;151.182;2023-12-14T01:43:28;6.00;;;2.17;;
16743;SDS011;71724;-33.900;151.182;2023-12-14T01:45:55;2.85;;;1.98;;
16743;SDS011;71724;-33.900;151.182;2023-12-14T01:48:22;4.32;;;1.92;;
16743;SDS011;71724;-33.900;151.182;2023-12-14T01:50:51;4.07;;;2.10;;
16743;SDS011;71724;-33.900;151.182;2023-12-14T01:53:20;6.10;;;2.13;;
16743;SDS011;71724;-33.900;151.182;2023-12-14T01:55:47;4.65;;;2.00;;
16743;SDS011;71724;-33.900;151.182;2023-12-14T01:58:17;3.70;;;1.80;;
16743;SDS011;71724;-33.900;151.182;2023-12-14T02:03:26;5.57;;;1.95;;
16743;SDS011;71724;-33.900;151.182;2023-12-14T02:05:54;5.32;;;1.98;;
16743;SDS011;71724;-33.900;151.182;2023-12-14T02:08:27;3.67;;;1.70;;
16743;SDS011;71724;-33.900;151.182;2023-12-14T02:11:01;3.97;;;1.90;;
16743;SDS011;71724;-33.900;151.182;2023-12-14T02:13:29;4.30;;;2.03;;
16743;SDS011;71724;-33.900;151.182;2023-12-14T02:15:56;3.83;;;1.70;;
16743;SDS011;71724;-33.900;151.182;2023-12-14T02:18:23;4.05;;;1.95;;
16743;SDS011;71724;-33.900;151.182;2023-12-14T02:20:51;3.28;;;2.08;;
16743;SDS011;71724;-33.900;151.182;2023-12-14T02:23:19;8.48;;;2.58;;
16743;SDS011;71724;-33.900;151.182;2023-12-14T02:25:49;2.75;;;1.60;;
16743;SDS011;71724;-33.900;151.182;2023-12-14T02:28:16;2.35;;;1.65;;
16743;SDS011;71724;-33.900;151.182;2023-12-14T02:30:43;3.92;;;2.40;;
16743;SDS011;71724;-33.900;151.182;2023-12-14T02:33:12;3.95;;;1.85;;
16743;SDS011;71724;-33.900;151.182;2023-12-14T02:35:40;2.38;;;1.75;;
16743;SDS011;71724;-33.900;151.182;2023-12-14T02:38:08;4.38;;;1.40;;
16743;SDS011;71724;-33.900;151.182;2023-12-14T02:40:35;3.05;;;1.33;;
16743;SDS011;71724;-33.900;151.182;2023-12-14T02:43:04;3.33;;;1.63;;
16743;SDS011;71724;-33.900;151.182;2023-12-14T02:45:31;2.88;;;1.50;;
16743;SDS011;71724;-33.900;151.182;2023-12-14T02:47:59;4.93;;;1.13;;
16743;SDS011;71724;-33.900;151.182;2023-12-14T02:50:30;4.90;;;1.23;;
16743;SDS011;71724;-33.900;151.182;2023-12-14T02:52:58;4.88;;;1.30;;
16743;SDS011;71724;-33.900;151.182;2023-12-14T02:55:25;4.70;;;0.93;;
16743;SDS011;71724;-33.900;151.182;2023-12-14T02:57:53;5.60;;;1.30;;
16743;SDS011;71724;-33.900;151.182;2023-12-14T03:00:20;3.45;;;1.30;;
16743;SDS011;71724;-33.900;151.182;2023-12-14T03:02:48;4.32;;;1.30;;
16743;SDS011;71724;-33.900;151.182;2023-12-14T03:05:15;3.65;;;1.55;;
16743;SDS011;71724;-33.900;151.182;2023-12-14T03:07:42;8.93;;;1.30;;
16743;SDS011;71724;-33.900;151.182;2023-12-14T03:10:10;3.22;;;1.40;;
16743;SDS011;71724;-33.900;151.182;2023-12-14T03:12:37;4.07;;;1.50;;
16743;SDS011;71724;-33.900;151.182;2023-12-14T03:15:05;1.90;;;1.15;;
16743;SDS011;71724;-33.900;151.182;2023-12-14T03:17:32;3.00;;;1.20;;
16743;SDS011;71724;-33.900;151.182;2023-12-14T03:20:00;4.55;;;1.27;;
16743;SDS011;71724;-33.900;151.182;2023-12-14T03:22:29;1.65;;;1.17;;
16743;SDS011;71724;-33.900;151.182;2023-12-14T03:24:56;3.25;;;1.30;;
16743;SDS011;71724;-33.900;151.182;2023-12-14T03:27:23;3.47;;;1.50;;
16743;SDS011;71724;-33.900;151.182;2023-12-14T03:29:51;3.90;;;1.55;;
16743;SDS011;71724;-33.900;151.182;2023-12-14T03:32:18;2.65;;;1.38;;
16743;SDS011;71724;-33.900;151.182;2023-12-14T03:34:45;3.03;;;1.23;;
16743;SDS011;71724;-33.900;151.182;2023-12-14T03:37:13;3.33;;;1.27;;
16743;SDS011;71724;-33.900;151.182;2023-12-14T03:39:40;5.88;;;1.30;;
16743;SDS011;71724;-33.900;151.182;2023-12-14T03:42:07;3.20;;;1.27;;
16743;SDS011;71724;-33.900;151.182;2023-12-14T03:44:35;1.38;;;1.02;;
16743;SDS011;71724;-33.900;151.182;2023-12-14T03:47:02;1.90;;;1.35;;
16743;SDS011;71724;-33.900;151.182;2023-12-14T03:49:30;4.53;;;1.58;;
16743;SDS011;71724;-33.900;151.182;2023-12-14T03:51:57;4.63;;;1.50;;
16743;SDS011;71724;-33.900;151.182;2023-12-14T03:54:25;4.25;;;1.80;;
16743;SDS011;71724;-33.900;151.182;2023-12-14T03:56:52;15.10;;;2.30;;
16743;SDS011;71724;-33.900;151.182;2023-12-14T03:59:20;2.22;;;1.40;;
16743;SDS011;71724;-33.900;151.182;2023-12-14T04:01:48;4.22;;;1.35;;
16743;SDS011;71724;-33.900;151.182;2023-12-14T04:04:15;2.50;;;1.42;;
16743;SDS011;71724;-33.900;151.182;2023-12-14T04:06:42;3.08;;;1.40;;
16743;SDS011;71724;-33.900;151.182;2023-12-14T04:09:10;4.18;;;1.63;;
16743;SDS011;71724;-33.900;151.182;2023-12-14T04:11:37;2.13;;;1.40;;
16743;SDS011;71724;-33.900;151.182;2023-12-14T04:14:04;3.65;;;1.50;;
16743;SDS011;71724;-33.900;151.182;2023-12-14T04:16:32;3.33;;;1.60;;
16743;SDS011;71724;-33.900;151.182;2023-12-14T04:18:59;4.63;;;1.33;;
16743;SDS011;71724;-33.900;151.182;2023-12-14T04:21:26;4.93;;;1.35;;
16743;SDS011;71724;-33.900;151.182;2023-12-14T04:23:54;2.05;;;1.23;;
16743;SDS011;71724;-33.900;151.182;2023-12-14T04:26:21;5.82;;;1.40;;
16743;SDS011;71724;-33.900;151.182;2023-12-14T04:28:49;3.05;;;1.00;;
16743;SDS011;71724;-33.900;151.182;2023-12-14T04:31:16;3.78;;;1.20;;
16743;SDS011;71724;-33.900;151.182;2023-12-14T04:33:43;2.80;;;1.15;;
16743;SDS011;71724;-33.900;151.182;2023-12-14T04:36:11;4.95;;;1.40;;
16743;SDS011;71724;-33.900;151.182;2023-12-14T04:38:38;2.67;;;1.17;;
16743;SDS011;71724;-33.900;151.182;2023-12-14T04:41:05;4.30;;;1.17;;
16743;SDS011;71724;-33.900;151.182;2023-12-14T04:43:33;2.00;;;1.10;;
16743;SDS011;71724;-33.900;151.182;2023-12-14T04:46:00;2.05;;;1.08;;
16743;SDS011;71724;-33.900;151.182;2023-12-14T04:48:29;2.97;;;1.20;;
16743;SDS011;71724;-33.900;151.182;2023-12-14T04:50:56;5.80;;;1.40;;
16743;SDS011;71724;-33.900;151.182;2023-12-14T04:53:24;2.35;;;1.17;;
16743;SDS011;71724;-33.900;151.182;2023-12-14T04:55:51;4.75;;;1.02;;
16743;SDS011;71724;-33.900;151.182;2023-12-14T04:58:18;3.67;;;1.20;;
16743;SDS011;71724;-33.900;151.182;2023-12-14T05:00:46;2.80;;;1.30;;
16743;SDS011;71724;-33.900;151.182;2023-12-14T05:03:13;4.68;;;1.10;;
16743;SDS011;71724;-33.900;151.182;2023-12-14T05:05:41;1.95;;;1.00;;
16743;SDS011;71724;-33.900;151.182;2023-12-14T05:08:08;5.28;;;1.25;;
16743;SDS011;71724;-33.900;151.182;2023-12-14T05:10:36;2.30;;;1.30;;
16743;SDS011;71724;-33.900;151.182;2023-12-14T05:13:03;4.60;;;1.50;;
16743;SDS011;71724;-33.900;151.182;2023-12-14T05:15:32;2.45;;;1.20;;
16743;SDS011;71724;-33.900;151.182;2023-12-14T05:18:00;3.28;;;1.10;;
16743;SDS011;71724;-33.900;151.182;2023-12-14T05:20:27;2.25;;;1.20;;
16743;SDS011;71724;-33.900;151.182;2023-12-14T05:22:55;4.40;;;1.30;;
16743;SDS011;71724;-33.900;151.182;2023-12-14T05:25:22;3.50;;;1.20;;
16743;SDS011;71724;-33.900;151.182;2023-12-14T05:27:50;1.15;;;1.00;;
16743;SDS011;71724;-33.900;151.182;2023-12-14T05:30:18;1.48;;;0.93;;
16743;SDS011;71724;-33.900;151.182;2023-12-14T05:32:45;3.10;;;1.15;;
16743;SDS011;71724;-33.900;151.182;2023-12-14T05:35:16;3.67;;;1.00;;
16743;SDS011;71724;-33.900;151.182;2023-12-14T05:37:44;3.03;;;1.20;;
16743;SDS011;71724;-33.900;151.182;2023-12-14T05:40:11;2.58;;;0.98;;
16743;SDS011;71724;-33.900;151.182;2023-12-14T05:42:44;4.35;;;0.90;;
16743;SDS011;71724;-33.900;151.182;2023-12-14T05:45:18;5.97;;;1.10;;
16743;SDS011;71724;-33.900;151.182;2023-12-14T05:47:45;2.13;;;1.02;;
16743;SDS011;71724;-33.900;151.182;2023-12-14T05:50:13;3.78;;;1.05;;
16743;SDS011;71724;-33.900;151.182;2023-12-14T05:52:41;2.83;;;1.00;;
16743;SDS011;71724;-33.900;151.182;2023-12-14T05:55:11;3.00;;;1.30;;
16743;SDS011;71724;-33.900;151.182;2023-12-14T05:57:39;6.07;;;1.42;;
16743;SDS011;71724;-33.900;151.182;2023-12-14T06:00:06;2.35;;;1.10;;
16743;SDS011;71724;-33.900;151.182;2023-12-14T06:02:34;2.30;;;1.17;;
16743;SDS011;71724;-33.900;151.182;2023-12-14T06:05:06;3.38;;;1.08;;
16743;SDS011;71724;-33.900;151.182;2023-12-14T06:07:34;2.70;;;1.02;;
16743;SDS011;71724;-33.900;151.182;2023-12-14T06:10:01;2.63;;;1.10;;
16743;SDS011;71724;-33.900;151.182;2023-12-14T06:12:30;3.72;;;1.02;;
16743;SDS011;71724;-33.900;151.182;2023-12-14T06:14:59;1.55;;;0.90;;
16743;SDS011;71724;-33.900;151.182;2023-12-14T06:17:27;2.55;;;1.20;;
16743;SDS011;71724;-33.900;151.182;2023-12-14T06:19:55;1.23;;;0.93;;
16743;SDS011;71724;-33.900;151.182;2023-12-14T06:22:22;3.70;;;1.27;;
16743;SDS011;71724;-33.900;151.182;2023-12-14T06:24:49;1.48;;;1.10;;
16743;SDS011;71724;-33.900;151.182;2023-12-14T06:27:17;2.72;;;1.10;;
16743;SDS011;71724;-33.900;151.182;2023-12-14T06:29:44;2.80;;;1.40;;
16743;SDS011;71724;-33.900;151.182;2023-12-14T06:32:12;2.17;;;1.10;;
16743;SDS011;71724;-33.900;151.182;2023-12-14T06:34:39;3.60;;;1.30;;
16743;SDS011;71724;-33.900;151.182;2023-12-14T06:37:07;4.93;;;1.25;;
16743;SDS011;71724;-33.900;151.182;2023-12-14T06:39:34;2.15;;;1.10;;
16743;SDS011;71724;-33.900;151.182;2023-12-14T06:42:01;2.30;;;1.10;;
16743;SDS011;71724;-33.900;151.182;2023-12-14T06:44:29;3.92;;;1.10;;
16743;SDS011;71724;-33.900;151.182;2023-12-14T06:46:56;3.13;;;1.02;;
16743;SDS011;71724;-33.900;151.182;2023-12-14T06:49:25;3.80;;;1.20;;
16743;SDS011;71724;-33.900;151.182;2023-12-14T06:51:52;2.47;;;1.20;;
16743;SDS011;71724;-33.900;151.182;2023-12-14T06:54:20;3.25;;;1.10;;
16743;SDS011;71724;-33.900;151.182;2023-12-14T06:56:47;2.53;;;1.38;;
16743;SDS011;71724;-33.900;151.182;2023-12-14T06:59:14;4.60;;;1.30;;
16743;SDS011;71724;-33.900;151.182;2023-12-14T07:01:42;2.33;;;1.10;;
16743;SDS011;71724;-33.900;151.182;2023-12-14T07:04:09;1.63;;;1.13;;
16743;SDS011;71724;-33.900;151.182;2023-12-14T07:06:37;2.30;;;1.05;;
16743;SDS011;71724;-33.900;151.182;2023-12-14T07:09:04;3.03;;;1.20;;
16743;SDS011;71724;-33.900;151.182;2023-12-14T07:11:31;3.13;;;1.10;;
16743;SDS011;71724;-33.900;151.182;2023-12-14T07:13:59;1.65;;;1.20;;
16743;SDS011;71724;-33.900;151.182;2023-12-14T07:16:26;2.38;;;1.10;;
16743;SDS011;71724;-33.900;151.182;2023-12-14T07:18:54;2.67;;;1.08;;
16743;SDS011;71724;-33.900;151.182;2023-12-14T07:21:21;3.25;;;1.10;;
16743;SDS011;71724;-33.900;151.182;2023-12-14T07:23:48;2.15;;;1.08;;
16743;SDS011;71724;-33.900;151.182;2023-12-14T07:26:16;3.47;;;1.00;;
16743;SDS011;71724;-33.900;151.182;2023-12-14T07:28:43;1.38;;;1.13;;
16743;SDS011;71724;-33.900;151.182;2023-12-14T07:31:10;2.28;;;1.13;;
16743;SDS011;71724;-33.900;151.182;2023-12-14T07:33:38;3.60;;;1.40;;
16743;SDS011;71724;-33.900;151.182;2023-12-14T07:36:06;1.83;;;0.98;;
16743;SDS011;71724;-33.900;151.182;2023-12-14T07:38:33;3.63;;;1.40;;
16743;SDS011;71724;-33.900;151.182;2023-12-14T07:41:01;2.22;;;1.42;;
16743;SDS011;71724;-33.900;151.182;2023-12-14T07:43:28;2.35;;;1.50;;
16743;SDS011;71724;-33.900;151.182;2023-12-14T07:45:57;2.58;;;1.40;;
16743;SDS011;71724;-33.900;151.182;2023-12-14T07:48:24;4.47;;;1.38;;
16743;SDS011;71724;-33.900;151.182;2023-12-14T07:50:54;1.77;;;1.20;;
16743;SDS011;71724;-33.900;151.182;2023-12-14T07:53:21;3.38;;;1.70;;
16743;SDS011;71724;-33.900;151.182;2023-12-14T07:55:49;3.03;;;1.10;;
16743;SDS011;71724;-33.900;151.182;2023-12-14T07:58:16;1.63;;;1.30;;
16743;SDS011;71724;-33.900;151.182;2023-12-14T08:00:44;2.65;;;1.20;;
16743;SDS011;71724;-33.900;151.182;2023-12-14T08:03:11;2.00;;;1.10;;
16743;SDS011;71724;-33.900;151.182;2023-12-14T08:05:38;2.53;;;1.27;;
16743;SDS011;71724;-33.900;151.182;2023-12-14T08:08:06;1.80;;;1.10;;
16743;SDS011;71724;-33.900;151.182;2023-12-14T08:10:33;2.55;;;1.67;;
16743;SDS011;71724;-33.900;151.182;2023-12-14T08:13:00;6.10;;;3.95;;
16743;SDS011;71724;-33.900;151.182;2023-12-14T08:15:29;3.42;;;2.40;;
16743;SDS011;71724;-33.900;151.182;2023-12-14T08:17:56;2.53;;;1.52;;
16743;SDS011;71724;-33.900;151.182;2023-12-14T08:20:23;3.58;;;1.63;;
16743;SDS011;71724;-33.900;151.182;2023-12-14T08:22:51;2.40;;;1.10;;
16743;SDS011;71724;-33.900;151.182;2023-12-14T08:25:19;1.92;;;1.05;;
16743;SDS011;71724;-33.900;151.182;2023-12-14T08:27:46;1.70;;;1.20;;
16743;SDS011;71724;-33.900;151.182;2023-12-14T08:30:13;4.15;;;1.08;;
16743;SDS011;71724;-33.900;151.182;2023-12-14T08:32:41;2.35;;;1.10;;
16743;SDS011;71724;-33.900;151.182;2023-12-14T08:35:08;1.75;;;1.65;;
16743;SDS011;71724;-33.900;151.182;2023-12-14T08:37:36;2.95;;;1.05;;
16743;SDS011;71724;-33.900;151.182;2023-12-14T08:40:04;2.10;;;1.15;;
16743;SDS011;71724;-33.900;151.182;2023-12-14T08:42:33;3.28;;;1.00;;
16743;SDS011;71724;-33.900;151.182;2023-12-14T08:45:01;2.95;;;1.20;;
16743;SDS011;71724;-33.900;151.182;2023-12-14T08:47:28;2.95;;;1.20;;
16743;SDS011;71724;-33.900;151.182;2023-12-14T08:49:55;3.90;;;1.10;;
16743;SDS011;71724;-33.900;151.182;2023-12-14T08:52:24;2.88;;;1.20;;
16743;SDS011;71724;-33.900;151.182;2023-12-14T08:54:52;1.20;;;1.08;;
16743;SDS011;71724;-33.900;151.182;2023-12-14T08:57:19;4.05;;;1.20;;
16743;SDS011;71724;-33.900;151.182;2023-12-14T08:59:47;1.55;;;1.00;;
16743;SDS011;71724;-33.900;151.182;2023-12-14T09:02:15;4.32;;;1.33;;
16743;SDS011;71724;-33.900;151.182;2023-12-14T09:04:43;5.05;;;1.17;;
16743;SDS011;71724;-33.900;151.182;2023-12-14T09:07:10;3.53;;;1.00;;
16743;SDS011;71724;-33.900;151.182;2023-12-14T09:09:38;2.15;;;1.00;;
16743;SDS011;71724;-33.900;151.182;2023-12-14T09:12:07;2.47;;;1.10;;
16743;SDS011;71724;-33.900;151.182;2023-12-14T09:14:37;2.03;;;1.13;;
16743;SDS011;71724;-33.900;151.182;2023-12-14T09:17:05;1.05;;;0.85;;
16743;SDS011;71724;-33.900;151.182;2023-12-14T09:19:32;2.60;;;1.15;;
16743;SDS011;71724;-33.900;151.182;2023-12-14T09:22:01;2.47;;;0.93;;
16743;SDS011;71724;-33.900;151.182;2023-12-14T09:24:28;2.03;;;1.10;;
16743;SDS011;71724;-33.900;151.182;2023-12-14T09:26:56;4.75;;;1.85;;
16743;SDS011;71724;-33.900;151.182;2023-12-14T09:29:23;7.22;;;5.85;;
16743;SDS011;71724;-33.900;151.182;2023-12-14T09:31:51;18.08;;;4.18;;
16743;SDS011;71724;-33.900;151.182;2023-12-14T09:34:21;23.35;;;5.57;;
16743;SDS011;71724;-33.900;151.182;2023-12-14T09:36:48;31.20;;;7.57;;
16743;SDS011;71724;-33.900;151.182;2023-12-14T09:39:16;31.90;;;6.97;;
16743;SDS011;71724;-33.900;151.182;2023-12-14T09:41:44;27.33;;;6.53;;
16743;SDS011;71724;-33.900;151.182;2023-12-14T09:44:12;32.40;;;6.93;;
16743;SDS011;71724;-33.900;151.182;2023-12-14T09:46:40;28.70;;;7.18;;
16743;SDS011;71724;-33.900;151.182;2023-12-14T09:49:15;30.35;;;7.28;;
16743;SDS011;71724;-33.900;151.182;2023-12-14T09:51:44;29.52;;;7.90;;
16743;SDS011;71724;-33.900;151.182;2023-12-14T09:54:13;29.98;;;7.05;;
16743;SDS011;71724;-33.900;151.182;2023-12-14T09:56:47;29.33;;;6.47;;
16743;SDS011;71724;-33.900;151.182;2023-12-14T09:59:15;35.50;;;7.13;;
16743;SDS011;71724;-33.900;151.182;2023-12-14T10:01:42;28.25;;;6.57;;
16743;SDS011;71724;-33.900;151.182;2023-12-14T10:04:10;37.50;;;7.32;;
16743;SDS011;71724;-33.900;151.182;2023-12-14T10:06:40;33.20;;;7.15;;
16743;SDS011;71724;-33.900;151.182;2023-12-14T10:09:10;31.95;;;7.35;;
16743;SDS011;71724;-33.900;151.182;2023-12-14T10:11:44;30.52;;;7.30;;
16743;SDS011;71724;-33.900;151.182;2023-12-14T10:16:47;30.00;;;6.97;;
16743;SDS011;71724;-33.900;151.182;2023-12-14T10:19:19;33.45;;;7.00;;
16743;SDS011;71724;-33.900;151.182;2023-12-14T10:21:47;31.42;;;6.75;;
16743;SDS011;71724;-33.900;151.182;2023-12-14T10:24:15;28.60;;;6.55;;
16743;SDS011;71724;-33.900;151.182;2023-12-14T10:26:47;30.33;;;6.00;;
16743;SDS011;71724;-33.900;151.182;2023-12-14T10:29:17;31.85;;;6.50;;
16743;SDS011;71724;-33.900;151.182;2023-12-14T10:31:45;32.53;;;6.93;;
16743;SDS011;71724;-33.900;151.182;2023-12-14T10:34:14;27.40;;;6.28;;
16743;SDS011;71724;-33.900;151.182;2023-12-14T10:36:42;32.05;;;6.82;;
16743;SDS011;71724;-33.900;151.182;2023-12-14T10:39:13;27.60;;;6.28;;
16743;SDS011;71724;-33.900;151.182;2023-12-14T10:41:41;29.17;;;6.05;;
16743;SDS011;71724;-33.900;151.182;2023-12-14T10:44:15;29.50;;;6.30;;
16743;SDS011;71724;-33.900;151.182;2023-12-14T10:46:45;37.58;;;6.82;;
16743;SDS011;71724;-33.900;151.182;2023-12-14T10:49:15;31.42;;;5.75;;
16743;SDS011;71724;-33.900;151.182;2023-12-14T10:51:42;36.28;;;6.03;;
16743;SDS011;71724;-33.900;151.182;2023-12-14T10:54:10;32.08;;;6.53;;
16743;SDS011;71724;-33.900;151.182;2023-12-14T10:56:37;29.80;;;5.65;;
16743;SDS011;71724;-33.900;151.182;2023-12-14T10:59:05;30.35;;;6.78;;
16743;SDS011;71724;-33.900;151.182;2023-12-14T11:01:33;30.50;;;6.57;;
16743;SDS011;71724;-33.900;151.182;2023-12-14T11:04:05;30.35;;;5.75;;
16743;SDS011;71724;-33.900;151.182;2023-12-14T11:06:39;32.35;;;5.80;;
16743;SDS011;71724;-33.900;151.182;2023-12-14T11:09:09;32.13;;;6.30;;
16743;SDS011;71724;-33.900;151.182;2023-12-14T11:11:54;33.33;;;5.68;;
16743;SDS011;71724;-33.900;151.182;2023-12-14T11:14:25;31.85;;;6.00;;
16743;SDS011;71724;-33.900;151.182;2023-12-14T11:16:54;26.30;;;5.03;;
16743;SDS011;71724;-33.900;151.182;2023-12-14T11:19:32;25.50;;;5.55;;
16743;SDS011;71724;-33.900;151.182;2023-12-14T11:24:41;25.33;;;4.95;;
16743;SDS011;71724;-33.900;151.182;2023-12-14T11:27:09;30.85;;;5.65;;
16743;SDS011;71724;-33.900;151.182;2023-12-14T11:29:38;29.50;;;5.97;;
16743;SDS011;71724;-33.900;151.182;2023-12-14T11:32:07;24.38;;;5.03;;
16743;SDS011;71724;-33.900;151.182;2023-12-14T11:34:35;24.20;;;4.18;;
16743;SDS011;71724;-33.900;151.182;2023-12-14T11:37:05;23.58;;;4.95;;
16743;SDS011;71724;-33.900;151.182;2023-12-14T11:39:32;31.60;;;5.53;;
16743;SDS011;71724;-33.900;151.182;2023-12-14T11:42:01;30.17;;;5.15;;
16743;SDS011;71724;-33.900;151.182;2023-12-14T11:44:30;20.40;;;4.38;;
16743;SDS011;71724;-33.900;151.182;2023-12-14T11:46:57;20.55;;;4.30;;
16743;SDS011;71724;-33.900;151.182;2023-12-14T11:49:25;28.70;;;4.60;;
16743;SDS011;71724;-33.900;151.182;2023-12-14T11:51:54;20.42;;;4.40;;
16743;SDS011;71724;-33.900;151.182;2023-12-14T11:54:22;31.45;;;4.90;;
16743;SDS011;71724;-33.900;151.182;2023-12-14T11:56:50;27.00;;;5.10;;
16743;SDS011;71724;-33.900;151.182;2023-12-14T11:59:17;23.48;;;4.90;;
16743;SDS011;71724;-33.900;151.182;2023-12-14T12:01:59;23.95;;;4.80;;
16743;SDS011;71724;-33.900;151.182;2023-12-14T12:04:28;23.83;;;4.50;;
16743;SDS011;71724;-33.900;151.182;2023-12-14T12:07:14;25.40;;;4.57;;
16743;SDS011;71724;-33.900;151.182;2023-12-14T12:09:43;26.35;;;4.50;;
16743;SDS011;71724;-33.900;151.182;2023-12-14T12:12:11;30.40;;;4.85;;
16743;SDS011;71724;-33.900;151.182;2023-12-14T12:14:39;17.58;;;4.10;;
16743;SDS011;71724;-33.900;151.182;2023-12-14T12:17:07;27.08;;;4.43;;
16743;SDS011;71724;-33.900;151.182;2023-12-14T12:19:36;24.52;;;4.78;;
16743;SDS011;71724;-33.900;151.182;2023-12-14T12:22:03;23.35;;;4.85;;
16743;SDS011;71724;-33.900;151.182;2023-12-14T12:24:31;26.67;;;5.00;;
16743;SDS011;71724;-33.900;151.182;2023-12-14T12:26:58;25.40;;;4.43;;
16743;SDS011;71724;-33.900;151.182;2023-12-14T12:29:26;22.67;;;4.35;;
16743;SDS011;71724;-33.900;151.182;2023-12-14T12:31:53;23.10;;;4.90;;
16743;SDS011;71724;-33.900;151.182;2023-12-14T12:34:21;23.08;;;4.20;;
16743;SDS011;71724;-33.900;151.182;2023-12-14T12:36:49;25.52;;;3.70;;
16743;SDS011;71724;-33.900;151.182;2023-12-14T12:39:16;27.20;;;4.93;;
16743;SDS011;71724;-33.900;151.182;2023-12-14T12:41:43;20.52;;;4.03;;
16743;SDS011;71724;-33.900;151.182;2023-12-14T12:44:11;21.20;;;4.03;;
16743;SDS011;71724;-33.900;151.182;2023-12-14T12:46:38;26.55;;;4.38;;
16743;SDS011;71724;-33.900;151.182;2023-12-14T12:49:06;16.65;;;3.45;;
16743;SDS011;71724;-33.900;151.182;2023-12-14T12:51:34;19.98;;;3.53;;
16743;SDS011;71724;-33.900;151.182;2023-12-14T12:54:01;24.27;;;4.97;;
16743;SDS011;71724;-33.900;151.182;2023-12-14T12:56:29;25.38;;;3.90;;
16743;SDS011;71724;-33.900;151.182;2023-12-14T12:58:57;18.60;;;3.50;;
16743;SDS011;71724;-33.900;151.182;2023-12-14T13:01:24;18.50;;;3.10;;
16743;SDS011;71724;-33.900;151.182;2023-12-14T13:03:55;21.65;;;3.75;;
16743;SDS011;71724;-33.900;151.182;2023-12-14T13:06:24;28.08;;;3.97;;
16743;SDS011;71724;-33.900;151.182;2023-12-14T13:08:52;26.27;;;4.55;;
16743;SDS011;71724;-33.900;151.182;2023-12-14T13:11:19;23.48;;;3.60;;
16743;SDS011;71724;-33.900;151.182;2023-12-14T13:13:47;19.75;;;4.28;;
16743;SDS011;71724;-33.900;151.182;2023-12-14T13:16:14;21.05;;;4.40;;
16743;SDS011;71724;-33.900;151.182;2023-12-14T13:18:42;31.75;;;4.50;;
16743;SDS011;71724;-33.900;151.182;2023-12-14T13:21:11;26.50;;;4.00;;
16743;SDS011;71724;-33.900;151.182;2023-12-14T13:23:39;22.05;;;3.40;;
16743;SDS011;71724;-33.900;151.182;2023-12-14T13:26:06;19.00;;;3.50;;
16743;SDS011;71724;-33.900;151.182;2023-12-14T13:28:34;17.90;;;3.83;;
16743;SDS011;71724;-33.900;151.182;2023-12-14T13:31:01;20.17;;;3.97;;
16743;SDS011;71724;-33.900;151.182;2023-12-14T13:33:31;18.42;;;4.32;;
16743;SDS011;71724;-33.900;151.182;2023-12-14T13:35:58;22.77;;;4.32;;
16743;SDS011;71724;-33.900;151.182;2023-12-14T13:38:25;16.40;;;3.50;;
16743;SDS011;71724;-33.900;151.182;2023-12-14T13:40:53;20.55;;;3.92;;
16743;SDS011;71724;-33.900;151.182;2023-12-14T13:43:20;17.52;;;3.45;;
16743;SDS011;71724;-33.900;151.182;2023-12-14T13:45:47;15.43;;;3.50;;
16743;SDS011;71724;-33.900;151.182;2023-12-14T13:48:18;19.60;;;3.97;;
16743;SDS011;71724;-33.900;151.182;2023-12-14T13:50:46;23.52;;;4.03;;
16743;SDS011;71724;-33.900;151.182;2023-12-14T13:53:15;18.05;;;3.10;;
16743;SDS011;71724;-33.900;151.182;2023-12-14T13:55:42;24.48;;;3.53;;
16743;SDS011;71724;-33.900;151.182;2023-12-14T13:58:10;16.80;;;3.33;;
16743;SDS011;71724;-33.900;151.182;2023-12-14T14:00:38;17.85;;;3.42;;
16743;SDS011;71724;-33.900;151.182;2023-12-14T14:03:05;20.50;;;3.60;;
16743;SDS011;71724;-33.900;151.182;2023-12-14T14:05:33;18.48;;;3.47;;
16743;SDS011;71724;-33.900;151.182;2023-12-14T14:08:01;12.85;;;2.83;;
16743;SDS011;71724;-33.900;151.182;2023-12-14T14:10:29;17.13;;;3.53;;
16743;SDS011;71724;-33.900;151.182;2023-12-14T14:12:56;18.50;;;3.22;;
16743;SDS011;71724;-33.900;151.182;2023-12-14T14:15:25;16.02;;;3.50;;